Time;durP1;ratioP1;P1;durP2;ratioP2;P2;SDS_P1;SDS_P2;PMS_P1;PMS_P2;Temp;Humidity;BMP_temperature;BMP_pressure;BME280_temperature;BME280_humidity;BME280_pressure;Samples;Min_cycle;Max_cycle;Signal;HPM_P1;HPM_P2
2021/12/14 00:01:45;;;;;;;3.07;2.77;;;;;;;;;;5009904;28;20242;-79
2021/12/14 00:04:25;;;;;;;6.30;4.57;;;;;;;;;;5008265;28;20674;-81
2021/12/14 00:06:52;;;;;;;5.77;4.70;;;;;;;;;;4991986;28;20299;-79
2021/12/14 00:09:25;;;;;;;8.90;5.80;;;;;;;;;;5001694;28;20267;-81
2021/12/14 00:12:11;;;;;;;8.47;5.83;;;;;;;;;;5012380;28;20811;-80
2021/12/14 00:17:08;;;;;;;11.17;3.40;;;;;;;;;;5005256;28;20239;-81
2021/12/14 00:19:36;;;;;;;50.43;3.83;;;;;;;;;;4992529;28;20261;-82
2021/12/14 00:22:17;;;;;;;46.47;3.30;;;;;;;;;;4994190;28;20250;-78
2021/12/14 00:24:45;;;;;;;14.17;4.13;;;;;;;;;;4996391;28;20253;-82
2021/12/14 00:27:13;;;;;;;14.00;6.07;;;;;;;;;;4988694;28;20204;-81
2021/12/14 00:29:42;;;;;;;8.87;5.20;;;;;;;;;;4992655;28;20348;-80
2021/12/14 00:32:13;;;;;;;8.60;3.80;;;;;;;;;;5012871;28;20235;-80
2021/12/14 00:34:43;;;;;;;31.00;3.23;;;;;;;;;;4994197;28;20250;-81
2021/12/14 00:37:12;;;;;;;7.83;3.10;;;;;;;;;;5007252;28;20750;-80
2021/12/14 00:39:39;;;;;;;21.57;3.13;;;;;;;;;;4993665;28;20294;-81
2021/12/14 00:42:07;;;;;;;4.63;3.83;;;;;;;;;;5012991;28;20269;-80
2021/12/14 00:44:34;;;;;;;7.97;3.90;;;;;;;;;;4990513;28;20204;-81
2021/12/14 00:47:02;;;;;;;8.57;3.13;;;;;;;;;;5001318;28;20235;-82
2021/12/14 00:49:30;;;;;;;13.77;3.17;;;;;;;;;;4986696;28;20322;-83
2021/12/14 00:51:58;;;;;;;3.00;2.70;;;;;;;;;;5006537;28;20278;-79
2021/12/14 00:54:25;;;;;;;8.83;3.47;;;;;;;;;;5005056;28;20316;-81
2021/12/14 00:56:53;;;;;;;13.50;3.47;;;;;;;;;;5009715;28;20303;-79
2021/12/14 00:59:21;;;;;;;6.77;3.40;;;;;;;;;;5005886;28;20685;-80
2021/12/14 01:01:56;;;;;;;6.40;3.73;;;;;;;;;;4987361;28;20319;-82
2021/12/14 01:04:29;;;;;;;8.50;3.60;;;;;;;;;;5008104;28;20198;-80
2021/12/14 01:06:56;;;;;;;6.00;3.50;;;;;;;;;;5009177;28;20250;-79
2021/12/14 01:09:30;;;;;;;6.77;3.30;;;;;;;;;;5007036;28;20666;-80
2021/12/14 01:12:05;;;;;;;7.50;3.47;;;;;;;;;;5004815;28;20203;-80
2021/12/14 01:14:41;;;;;;;11.27;3.30;;;;;;;;;;4985381;28;20242;-80
2021/12/14 01:17:14;;;;;;;4.63;3.10;;;;;;;;;;5006329;28;20222;-81
2021/12/14 01:19:43;;;;;;;8.27;3.23;;;;;;;;;;5000360;28;20254;-82
2021/12/14 01:22:19;;;;;;;7.33;3.67;;;;;;;;;;4997785;28;20635;-79
2021/12/14 01:27:20;;;;;;;4.13;2.97;;;;;;;;;;5003939;28;20698;-82
2021/12/14 01:29:51;;;;;;;7.57;2.77;;;;;;;;;;5001799;28;20231;-79
2021/12/14 01:32:21;;;;;;;26.30;3.80;;;;;;;;;;5010481;28;20207;-79
2021/12/14 01:34:48;;;;;;;35.97;3.50;;;;;;;;;;4990538;28;20286;-81
2021/12/14 01:37:20;;;;;;;21.67;3.17;;;;;;;;;;4989922;28;20873;-81
2021/12/14 01:40:02;;;;;;;6.63;2.67;;;;;;;;;;5004104;28;20281;-82
2021/12/14 01:42:32;;;;;;;3.97;3.20;;;;;;;;;;4981279;28;20242;-81
2021/12/14 01:45:01;;;;;;;3.50;2.73;;;;;;;;;;5000404;28;20249;-81
2021/12/14 01:47:31;;;;;;;8.97;3.53;;;;;;;;;;4986671;28;20204;-80
2021/12/14 01:49:58;;;;;;;10.87;3.20;;;;;;;;;;4999726;28;20222;-80
2021/12/14 01:52:28;;;;;;;3.77;3.10;;;;;;;;;;4982879;28;20211;-78
2021/12/14 01:54:57;;;;;;;4.27;2.80;;;;;;;;;;4998973;28;20652;-79
2021/12/14 01:57:28;;;;;;;4.93;2.90;;;;;;;;;;4993201;28;20231;-82
2021/12/14 01:59:58;;;;;;;5.20;2.90;;;;;;;;;;5000474;28;20207;-80
2021/12/14 02:02:33;;;;;;;4.20;3.10;;;;;;;;;;5001821;28;20290;-79
2021/12/14 02:05:06;;;;;;;3.73;2.70;;;;;;;;;;5009824;28;20677;-81
2021/12/14 02:07:34;;;;;;;5.53;3.30;;;;;;;;;;5010496;28;20247;-80
2021/12/14 02:10:08;;;;;;;12.37;3.80;;;;;;;;;;5005342;28;20236;-78
2021/12/14 02:12:36;;;;;;;6.70;4.17;;;;;;;;;;5004954;28;20290;-81
2021/12/14 02:15:10;;;;;;;5.37;4.03;;;;;;;;;;5009038;28;20227;-79
2021/12/14 02:17:40;;;;;;;6.97;3.53;;;;;;;;;;4986075;28;20855;-81
2021/12/14 02:20:09;;;;;;;5.17;3.53;;;;;;;;;;4982422;28;20254;-79
2021/12/14 02:22:37;;;;;;;3.87;3.10;;;;;;;;;;5001289;28;20227;-78
2021/12/14 02:25:06;;;;;;;3.50;2.97;;;;;;;;;;4981008;28;21253;-82
2021/12/14 02:27:35;;;;;;;3.57;2.80;;;;;;;;;;5006596;28;20307;-82
2021/12/14 02:30:05;;;;;;;2.77;2.57;;;;;;;;;;5009027;28;20259;-81
2021/12/14 02:32:33;;;;;;;2.73;2.50;;;;;;;;;;4999236;28;20235;-82
2021/12/14 02:35:01;;;;;;;3.13;2.70;;;;;;;;;;5002797;28;20230;-82
2021/12/14 02:37:40;;;;;;;14.83;8.20;;;;;;;;;;5000302;28;20285;-81
2021/12/14 02:40:17;;;;;;;19.50;9.10;;;;;;;;;;4987870;28;20303;-80
2021/12/14 02:42:45;;;;;;;4.53;3.70;;;;;;;;;;5001910;28;20300;-79
2021/12/14 02:45:12;;;;;;;5.57;3.67;;;;;;;;;;4982854;28;20733;-81
2021/12/14 02:47:39;;;;;;;8.93;6.10;;;;;;;;;;4999857;28;21381;-81
2021/12/14 02:50:07;;;;;;;14.07;8.93;;;;;;;;;;5004128;28;20247;-80
2021/12/14 02:52:37;;;;;;;15.47;8.53;;;;;;;;;;4998835;28;20267;-81
2021/12/14 02:55:07;;;;;;;5.63;3.77;;;;;;;;;;4991396;28;20218;-78
2021/12/14 02:57:36;;;;;;;2.13;1.93;;;;;;;;;;4990122;28;20233;-80
2021/12/14 03:00:07;;;;;;;3.00;2.70;;;;;;;;;;5005541;28;20518;-80
2021/12/14 03:02:34;;;;;;;3.97;3.07;;;;;;;;;;5005751;28;20243;-77
2021/12/14 03:05:07;;;;;;;3.10;2.53;;;;;;;;;;4998778;28;20219;-79
2021/12/14 03:07:40;;;;;;;2.70;2.27;;;;;;;;;;5000583;28;20250;-78
2021/12/14 03:12:48;;;;;;;2.23;1.97;;;;;;;;;;5005628;28;20298;-80
2021/12/14 03:15:18;;;;;;;2.37;2.00;;;;;;;;;;5003559;28;20266;-78
2021/12/14 03:17:46;;;;;;;3.80;2.50;;;;;;;;;;5002492;28;20227;-80
2021/12/14 03:20:25;;;;;;;5.67;4.00;;;;;;;;;;5010624;28;20216;-78
2021/12/14 03:22:58;;;;;;;5.40;4.50;;;;;;;;;;4999260;28;20771;-78
2021/12/14 03:25:26;;;;;;;5.20;4.30;;;;;;;;;;4990292;28;20296;-80
2021/12/14 03:27:54;;;;;;;3.80;3.37;;;;;;;;;;4989953;28;20278;-80
2021/12/14 03:30:30;;;;;;;3.40;2.33;;;;;;;;;;4988079;28;21563;-79
2021/12/14 03:32:59;;;;;;;2.43;2.17;;;;;;;;;;5005973;28;20203;-79
2021/12/14 03:35:35;;;;;;;3.40;3.10;;;;;;;;;;5006876;28;20228;-78
2021/12/14 03:38:15;;;;;;;8.87;6.47;;;;;;;;;;5002365;28;20657;-81
2021/12/14 03:40:43;;;;;;;7.23;5.90;;;;;;;;;;4997399;28;20286;-79
2021/12/14 03:43:13;;;;;;;5.20;4.70;;;;;;;;;;5013612;28;20234;-79
2021/12/14 03:45:40;;;;;;;3.40;3.00;;;;;;;;;;4989510;28;20239;-81
2021/12/14 03:48:07;;;;;;;2.63;2.30;;;;;;;;;;5007004;28;20246;-81
2021/12/14 03:50:40;;;;;;;2.57;2.37;;;;;;;;;;5006954;28;20668;-79
2021/12/14 03:53:09;;;;;;;2.40;2.20;;;;;;;;;;4989154;28;20278;-81
2021/12/14 03:55:42;;;;;;;2.60;2.40;;;;;;;;;;5007184;28;20231;-80
2021/12/14 03:58:11;;;;;;;2.03;1.93;;;;;;;;;;5010874;28;20255;-78
2021/12/14 04:00:42;;;;;;;2.50;2.13;;;;;;;;;;5002375;28;20243;-79
2021/12/14 04:03:11;;;;;;;2.00;1.90;;;;;;;;;;5010735;28;20202;-79
2021/12/14 04:05:41;;;;;;;4.33;2.93;;;;;;;;;;5005940;28;20231;-77
2021/12/14 04:08:09;;;;;;;3.17;2.87;;;;;;;;;;5008702;28;20326;-79
2021/12/14 04:10:37;;;;;;;2.73;2.53;;;;;;;;;;5002697;28;20635;-78
2021/12/14 04:13:05;;;;;;;2.93;2.73;;;;;;;;;;5003352;28;20303;-80
2021/12/14 04:15:33;;;;;;;2.80;2.60;;;;;;;;;;5004861;28;20295;-78
2021/12/14 04:18:01;;;;;;;3.40;3.00;;;;;;;;;;5005800;28;20310;-79
2021/12/14 04:20:31;;;;;;;5.83;4.10;;;;;;;;;;5002209;28;20671;-80
2021/12/14 04:22:59;;;;;;;4.23;3.60;;;;;;;;;;5005660;28;20264;-77
2021/12/14 04:25:28;;;;;;;3.83;2.93;;;;;;;;;;5002355;28;20216;-81
2021/12/14 04:27:56;;;;;;;3.80;2.70;;;;;;;;;;5009090;28;20311;-81
2021/12/14 04:30:25;;;;;;;3.57;2.73;;;;;;;;;;5005323;28;20673;-79
2021/12/14 04:32:54;;;;;;;3.30;2.70;;;;;;;;;;5004918;28;20286;-79
2021/12/14 04:35:21;;;;;;;3.93;2.60;;;;;;;;;;5001153;28;20294;-79
2021/12/14 04:37:51;;;;;;;3.30;2.37;;;;;;;;;;5000783;28;20995;-79
2021/12/14 04:51:58;;;;;;;14.23;9.23;;;;;;;;;;5003509;28;20274;-79
2021/12/14 04:54:30;;;;;;;14.97;9.70;;;;;;;;;;5005316;28;20325;-78
2021/12/14 04:56:58;;;;;;;25.20;15.03;;;;;;;;;;4998838;28;20746;-80
2021/12/14 04:59:30;;;;;;;32.17;17.00;;;;;;;;;;4984162;28;20274;-78
2021/12/14 05:02:00;;;;;;;29.93;16.93;;;;;;;;;;5008474;28;20519;-79
2021/12/14 05:04:28;;;;;;;25.20;15.87;;;;;;;;;;5001458;28;20266;-79
2021/12/14 05:07:04;;;;;;;18.40;11.10;;;;;;;;;;4997248;28;20299;-79
2021/12/14 05:09:34;;;;;;;13.80;8.10;;;;;;;;;;4999861;28;20219;-80
2021/12/14 05:12:07;;;;;;;13.07;9.30;;;;;;;;;;5005418;28;20631;-79
2021/12/14 05:14:35;;;;;;;9.10;7.17;;;;;;;;;;4997928;28;20239;-81
2021/12/14 05:17:05;;;;;;;7.93;6.70;;;;;;;;;;5009171;28;20195;-81
2021/12/14 05:19:33;;;;;;;5.03;4.63;;;;;;;;;;5003528;28;20258;-80
2021/12/14 05:22:07;;;;;;;5.73;4.23;;;;;;;;;;5007739;28;20223;-81
2021/12/14 05:24:37;;;;;;;6.37;4.87;;;;;;;;;;5000093;28;20240;-80
2021/12/14 05:27:07;;;;;;;4.60;4.10;;;;;;;;;;4998004;28;20255;-79
2021/12/14 05:29:35;;;;;;;4.33;3.27;;;;;;;;;;5001935;28;20799;-79
2021/12/14 05:32:03;;;;;;;4.70;3.03;;;;;;;;;;5005397;28;20258;-79
2021/12/14 05:34:36;;;;;;;6.00;3.73;;;;;;;;;;5010009;28;20230;-81
2021/12/14 05:37:04;;;;;;;5.47;3.73;;;;;;;;;;5012549;28;20645;-79
2021/12/14 05:44:37;;;;;;;2.90;2.50;;;;;;;;;;5006099;28;20269;-82
2021/12/14 05:47:10;;;;;;;4.07;3.67;;;;;;;;;;5002165;28;20216;-80
2021/12/14 05:49:39;;;;;;;5.17;4.33;;;;;;;;;;5007304;28;20679;-80
2021/12/14 05:52:08;;;;;;;5.43;4.90;;;;;;;;;;5006592;28;20227;-80
2021/12/14 05:54:36;;;;;;;9.37;6.23;;;;;;;;;;5005460;28;20258;-80
2021/12/14 05:57:05;;;;;;;8.50;5.93;;;;;;;;;;5005028;28;20311;-80
2021/12/14 05:59:33;;;;;;;5.60;5.10;;;;;;;;;;5007469;28;20251;-80
2021/12/14 06:02:02;;;;;;;3.83;3.20;;;;;;;;;;4984570;28;20269;-80
2021/12/14 06:04:39;;;;;;;2.37;2.17;;;;;;;;;;4999023;28;20204;-80
2021/12/14 06:07:07;;;;;;;3.13;2.60;;;;;;;;;;4991501;28;20651;-80
2021/12/14 06:09:35;;;;;;;3.00;2.80;;;;;;;;;;5009185;28;20302;-82
2021/12/14 06:12:14;;;;;;;3.47;3.20;;;;;;;;;;5003654;28;20285;-81
2021/12/14 06:14:50;;;;;;;2.87;2.67;;;;;;;;;;5010135;28;20294;-80
2021/12/14 06:17:22;;;;;;;2.50;2.30;;;;;;;;;;5011373;28;20230;-81
2021/12/14 06:19:52;;;;;;;2.10;2.00;;;;;;;;;;5010110;28;20249;-81
2021/12/14 06:22:20;;;;;;;2.77;2.53;;;;;;;;;;4993860;28;20254;-79
2021/12/14 06:24:49;;;;;;;4.63;3.93;;;;;;;;;;5004822;28;20291;-83
2021/12/14 06:27:17;;;;;;;3.90;3.60;;;;;;;;;;5008523;28;20245;-79
2021/12/14 06:29:46;;;;;;;3.90;3.50;;;;;;;;;;4987806;28;20275;-80
2021/12/14 06:32:16;;;;;;;4.17;3.47;;;;;;;;;;5012875;28;20262;-79
2021/12/14 06:34:50;;;;;;;3.03;2.73;;;;;;;;;;4997344;28;20212;-81
2021/12/14 06:37:29;;;;;;;2.97;2.67;;;;;;;;;;5012856;28;20199;-78
2021/12/14 06:40:03;;;;;;;3.60;3.30;;;;;;;;;;5016099;28;20223;-82
2021/12/14 06:42:31;;;;;;;5.23;3.73;;;;;;;;;;4994615;28;20238;-81
2021/12/14 06:45:09;;;;;;;4.27;3.50;;;;;;;;;;5009954;28;20671;-81
2021/12/14 06:47:38;;;;;;;3.77;3.20;;;;;;;;;;5002460;28;20753;-81
2021/12/14 06:50:13;;;;;;;3.63;2.50;;;;;;;;;;5012184;28;20211;-81
2021/12/14 06:52:40;;;;;;;2.50;2.23;;;;;;;;;;5012321;28;20317;-78
2021/12/14 06:55:19;;;;;;;2.93;2.63;;;;;;;;;;5012579;28;20717;-80
2021/12/14 06:57:46;;;;;;;4.33;3.27;;;;;;;;;;5015662;28;20251;-82
2021/12/14 07:00:14;;;;;;;4.83;4.37;;;;;;;;;;5016537;28;20686;-80
2021/12/14 07:02:45;;;;;;;6.00;4.97;;;;;;;;;;4996131;28;20211;-80
2021/12/14 07:05:28;;;;;;;4.00;3.60;;;;;;;;;;4992371;28;20253;-80
2021/12/14 07:07:56;;;;;;;2.60;2.40;;;;;;;;;;5005857;28;20267;-80
2021/12/14 07:10:24;;;;;;;2.73;2.50;;;;;;;;;;5011110;28;20296;-82
2021/12/14 07:12:59;;;;;;;4.23;2.87;;;;;;;;;;5012180;28;20199;-80
2021/12/14 07:15:35;;;;;;;4.37;3.07;;;;;;;;;;5010547;28;20270;-81
2021/12/14 07:18:05;;;;;;;4.07;3.27;;;;;;;;;;5010915;28;20247;-80
2021/12/14 07:20:46;;;;;;;6.20;4.37;;;;;;;;;;5011501;28;20640;-82
2021/12/14 07:23:18;;;;;;;4.53;4.13;;;;;;;;;;5007480;28;20208;-80
2021/12/14 07:25:50;;;;;;;4.77;4.30;;;;;;;;;;4990752;28;20307;-81
2021/12/14 07:28:18;;;;;;;3.47;3.10;;;;;;;;;;5008431;28;20258;-81
2021/12/14 07:30:47;;;;;;;4.40;3.77;;;;;;;;;;5006368;28;20239;-81
2021/12/14 07:33:14;;;;;;;5.73;4.80;;;;;;;;;;4989721;28;20256;-80
2021/12/14 07:35:47;;;;;;;6.90;5.77;;;;;;;;;;5011310;28;20207;-80
2021/12/14 07:38:18;;;;;;;8.17;7.13;;;;;;;;;;5008410;28;20223;-80
2021/12/14 07:40:47;;;;;;;6.80;6.10;;;;;;;;;;5009816;28;20208;-82
2021/12/14 07:43:15;;;;;;;6.43;5.83;;;;;;;;;;5009829;28;20467;-78
2021/12/14 07:45:42;;;;;;;5.53;4.97;;;;;;;;;;5010750;28;20282;-82
2021/12/14 07:48:09;;;;;;;5.37;4.67;;;;;;;;;;5007296;28;20303;-81
2021/12/14 07:50:39;;;;;;;6.60;3.80;;;;;;;;;;4991138;28;20731;-80
2021/12/14 07:53:07;;;;;;;3.90;3.43;;;;;;;;;;5006457;28;20254;-77
2021/12/14 07:55:37;;;;;;;4.87;3.50;;;;;;;;;;5010906;28;20290;-80
2021/12/14 07:58:05;;;;;;;4.77;3.87;;;;;;;;;;5014127;28;20259;-84
2021/12/14 08:00:36;;;;;;;3.43;3.13;;;;;;;;;;5011853;28;20249;-79
2021/12/14 08:03:04;;;;;;;3.40;3.10;;;;;;;;;;5004306;28;20213;-84
2021/12/14 08:05:33;;;;;;;3.90;3.50;;;;;;;;;;5011508;28;20237;-81
2021/12/14 08:08:15;;;;;;;3.33;3.03;;;;;;;;;;5001979;28;20301;-81
2021/12/14 08:11:08;;;;;;;3.10;2.90;;;;;;;;;;5008205;28;20278;-81
2021/12/14 08:13:44;;;;;;;3.23;2.93;;;;;;;;;;5007472;28;20215;-82
2021/12/14 08:16:11;;;;;;;4.67;4.00;;;;;;;;;;4992451;28;20294;-80
2021/12/14 08:18:39;;;;;;;3.83;3.47;;;;;;;;;;5009385;28;20618;-81
2021/12/14 08:21:11;;;;;;;3.67;3.10;;;;;;;;;;5014337;28;20299;-79
2021/12/14 08:23:40;;;;;;;4.67;3.93;;;;;;;;;;5012415;28;20257;-78
2021/12/14 08:26:07;;;;;;;3.40;3.10;;;;;;;;;;5012084;28;20208;-81
2021/12/14 08:28:53;;;;;;;2.50;2.30;;;;;;;;;;4993536;28;20634;-80
2021/12/14 08:31:22;;;;;;;3.47;3.17;;;;;;;;;;5011494;28;20310;-80
2021/12/14 08:34:00;;;;;;;4.77;4.10;;;;;;;;;;4995837;28;20203;-78
2021/12/14 08:36:47;;;;;;;3.00;2.80;;;;;;;;;;5009920;28;20231;-84
2021/12/14 08:39:18;;;;;;;3.80;3.40;;;;;;;;;;5013344;28;20345;-82
2021/12/14 08:41:51;;;;;;;4.77;4.23;;;;;;;;;;5006797;28;20802;-78
2021/12/14 08:44:26;;;;;;;3.87;3.57;;;;;;;;;;5017995;28;20246;-80
2021/12/14 08:46:54;;;;;;;6.20;5.60;;;;;;;;;;4998887;28;20289;-80
2021/12/14 08:49:21;;;;;;;5.60;4.33;;;;;;;;;;5010352;28;20235;-83
2021/12/14 08:51:49;;;;;;;6.03;4.13;;;;;;;;;;5013957;28;20335;-82
2021/12/14 08:54:25;;;;;;;4.87;4.17;;;;;;;;;;4995018;28;20243;-80
2021/12/14 08:56:55;;;;;;;3.87;3.53;;;;;;;;;;5014447;28;20285;-79
2021/12/14 08:59:22;;;;;;;3.10;2.90;;;;;;;;;;5015831;28;20771;-82
2021/12/14 09:01:50;;;;;;;4.23;3.77;;;;;;;;;;5007217;28;20290;-80
2021/12/14 09:04:26;;;;;;;4.40;4.00;;;;;;;;;;5008776;28;20207;-80
2021/12/14 09:06:55;;;;;;;7.73;7.03;;;;;;;;;;5007874;28;20294;-80
2021/12/14 09:09:23;;;;;;;8.20;7.43;;;;;;;;;;4993996;28;20259;-80
2021/12/14 09:11:54;;;;;;;6.60;6.10;;;;;;;;;;5012771;28;20714;-83
2021/12/14 09:14:21;;;;;;;5.97;5.17;;;;;;;;;;5008368;28;20296;-81
2021/12/14 09:16:50;;;;;;;8.47;5.53;;;;;;;;;;4998537;28;20241;-80
2021/12/14 09:19:23;;;;;;;7.53;6.17;;;;;;;;;;4994051;28;20293;-82
2021/12/14 09:21:53;;;;;;;8.20;6.70;;;;;;;;;;4988364;28;20750;-81
2021/12/14 09:24:22;;;;;;;8.43;6.80;;;;;;;;;;4995263;28;20249;-80
2021/12/14 09:26:52;;;;;;;5.63;4.47;;;;;;;;;;5011472;28;20257;-81
2021/12/14 09:29:21;;;;;;;6.43;4.77;;;;;;;;;;5016138;28;20332;-82
2021/12/14 09:31:49;;;;;;;6.10;3.83;;;;;;;;;;5010220;28;20314;-82
2021/12/14 09:34:18;;;;;;;4.50;3.60;;;;;;;;;;4989439;28;20242;-81
2021/12/14 09:36:46;;;;;;;3.83;3.10;;;;;;;;;;5011628;28;20230;-82
2021/12/14 09:39:17;;;;;;;3.30;3.00;;;;;;;;;;5008961;28;20251;-81
2021/12/14 09:41:46;;;;;;;3.40;2.90;;;;;;;;;;4993685;28;20436;-81
2021/12/14 09:44:16;;;;;;;3.60;3.30;;;;;;;;;;4993001;28;20293;-81
2021/12/14 09:46:44;;;;;;;4.70;3.77;;;;;;;;;;5013695;28;20243;-83
2021/12/14 09:49:12;;;;;;;4.20;3.80;;;;;;;;;;4987634;28;20263;-80
2021/12/14 09:51:42;;;;;;;5.03;4.20;;;;;;;;;;4989100;28;20262;-80
2021/12/14 09:54:12;;;;;;;5.47;4.60;;;;;;;;;;5006835;28;20669;-82
2021/12/14 09:56:45;;;;;;;4.83;4.03;;;;;;;;;;5009549;28;20204;-80
2021/12/14 09:59:12;;;;;;;4.57;3.40;;;;;;;;;;4990861;28;20316;-81
2021/12/14 10:01:42;;;;;;;3.53;3.23;;;;;;;;;;5012307;28;20226;-79
2021/12/14 10:04:13;;;;;;;3.60;3.30;;;;;;;;;;4989682;28;20217;-79
2021/12/14 10:06:40;;;;;;;3.53;3.23;;;;;;;;;;5014147;28;20293;-77
2021/12/14 10:09:11;;;;;;;2.47;2.30;;;;;;;;;;5008075;28;20220;-81
2021/12/14 10:14:40;;;;;;;3.00;2.30;;;;;;;;;;4972206;28;20258;-81
2021/12/14 10:17:09;;;;;;;2.50;2.30;;;;;;;;;;5013414;28;20235;-80
2021/12/14 10:19:38;;;;;;;2.10;2.00;;;;;;;;;;5005973;28;20317;-82
2021/12/14 10:22:17;;;;;;;2.80;2.60;;;;;;;;;;5015687;28;20211;-79
2021/12/14 10:24:44;;;;;;;2.70;2.50;;;;;;;;;;5013581;28;20235;-81
2021/12/14 10:27:14;;;;;;;2.50;2.30;;;;;;;;;;5012469;28;20227;-80
2021/12/14 10:29:41;;;;;;;2.83;2.63;;;;;;;;;;4995515;28;20295;-79
2021/12/14 10:32:20;;;;;;;4.63;3.43;;;;;;;;;;5006730;28;20233;-79
2021/12/14 10:34:53;;;;;;;3.70;3.40;;;;;;;;;;5009558;28;20245;-79
2021/12/14 10:37:24;;;;;;;3.33;3.03;;;;;;;;;;5011849;28;20698;-81
2021/12/14 10:45:27;;;;;;;3.17;2.90;;;;;;;;;;5011854;28;20294;-79
2021/12/14 10:47:55;;;;;;;5.50;4.63;;;;;;;;;;5008482;28;20339;-81
2021/12/14 10:50:24;;;;;;;7.37;6.57;;;;;;;;;;5009852;28;20750;-79
2021/12/14 10:52:52;;;;;;;6.77;5.70;;;;;;;;;;4994263;28;20314;-82
2021/12/14 10:55:22;;;;;;;8.53;6.37;;;;;;;;;;5006320;28;20581;-80
2021/12/14 10:57:49;;;;;;;8.37;6.73;;;;;;;;;;5009631;28;20243;-80
2021/12/14 11:00:19;;;;;;;9.07;7.57;;;;;;;;;;5012254;28;20900;-80
2021/12/14 11:02:46;;;;;;;7.60;6.27;;;;;;;;;;5013334;28;20217;-81
2021/12/14 11:05:18;;;;;;;6.60;5.83;;;;;;;;;;5010385;28;20199;-80
2021/12/14 11:07:46;;;;;;;8.47;6.30;;;;;;;;;;5002381;28;20318;-78
2021/12/14 11:10:18;;;;;;;5.77;5.27;;;;;;;;;;5015718;28;20266;-80
2021/12/14 11:12:48;;;;;;;3.90;3.60;;;;;;;;;;4996548;28;20247;-80
2021/12/14 11:15:17;;;;;;;3.77;3.40;;;;;;;;;;4990221;28;20218;-81
2021/12/14 11:20:34;;;;;;;6.70;2.50;;;;;;;;;;4999505;28;20294;-79
2021/12/14 11:23:09;;;;;;;2.87;2.67;;;;;;;;;;5003409;28;20659;-80
2021/12/14 11:25:38;;;;;;;3.63;3.23;;;;;;;;;;5002821;28;20200;-79
2021/12/14 11:28:09;;;;;;;4.23;3.83;;;;;;;;;;5008963;28;20335;-81
2021/12/14 11:30:39;;;;;;;3.47;2.90;;;;;;;;;;5002370;28;20203;-79
2021/12/14 11:33:09;;;;;;;2.53;2.37;;;;;;;;;;4989857;28;20320;-80
2021/12/14 11:35:40;;;;;;;2.87;2.67;;;;;;;;;;4993984;28;20268;-79
2021/12/14 11:38:22;;;;;;;4.60;3.17;;;;;;;;;;4999870;28;20255;-81
2021/12/14 11:40:49;;;;;;;5.23;4.30;;;;;;;;;;5008711;28;20249;-82
2021/12/14 11:43:20;;;;;;;12.03;7.97;;;;;;;;;;4996440;28;20204;-80
2021/12/14 11:45:49;;;;;;;9.77;6.47;;;;;;;;;;5011444;28;20242;-82
2021/12/14 11:48:26;;;;;;;10.57;6.00;;;;;;;;;;5011504;28;20235;-81
2021/12/14 11:50:53;;;;;;;16.20;8.77;;;;;;;;;;5006901;28;20299;-80
2021/12/14 11:53:22;;;;;;;10.43;7.03;;;;;;;;;;4988845;28;20711;-80
2021/12/14 11:56:00;;;;;;;10.37;6.40;;;;;;;;;;5011550;28;20572;-80
2021/12/14 11:58:43;;;;;;;8.13;4.57;;;;;;;;;;5006731;28;20314;-80
2021/12/14 12:01:17;;;;;;;6.13;3.80;;;;;;;;;;5008587;28;20567;-80
2021/12/14 12:03:53;;;;;;;2.77;2.00;;;;;;;;;;5011795;28;20668;-81
2021/12/14 12:09:31;;;;;;;1.60;1.50;;;;;;;;;;5012592;28;20726;-80
2021/12/14 12:12:05;;;;;;;2.77;2.20;;;;;;;;;;5005332;28;20199;-80
2021/12/14 12:14:43;;;;;;;2.50;2.30;;;;;;;;;;5009299;28;20295;-80
2021/12/14 12:17:28;;;;;;;1.53;1.43;;;;;;;;;;5005730;28;20282;-81
2021/12/14 12:19:57;;;;;;;7.80;4.50;;;;;;;;;;5006322;28;20302;-80
2021/12/14 12:22:25;;;;;;;9.27;5.60;;;;;;;;;;4993332;28;20273;-81
2021/12/14 12:24:54;;;;;;;6.00;4.00;;;;;;;;;;4994517;28;20739;-79
2021/12/14 12:27:33;;;;;;;3.13;2.50;;;;;;;;;;4991834;28;20358;-80
2021/12/14 12:30:09;;;;;;;2.73;2.47;;;;;;;;;;5009971;28;20242;-80
2021/12/14 12:32:37;;;;;;;1.70;1.60;;;;;;;;;;4991128;28;20255;-81
2021/12/14 12:35:20;;;;;;;1.83;1.70;;;;;;;;;;5007881;28;20655;-80
2021/12/14 12:37:48;;;;;;;1.53;1.43;;;;;;;;;;5007852;28;20706;-79
2021/12/14 12:40:17;;;;;;;3.10;2.20;;;;;;;;;;5007977;28;20243;-82
2021/12/14 12:42:45;;;;;;;3.03;1.90;;;;;;;;;;5011545;28;20298;-81
2021/12/14 12:45:33;;;;;;;3.83;2.80;;;;;;;;;;5011506;28;20258;-80
2021/12/14 12:48:01;;;;;;;7.23;6.00;;;;;;;;;;5014915;28;20785;-80
2021/12/14 12:50:29;;;;;;;9.10;8.00;;;;;;;;;;4994020;28;20306;-81
2021/12/14 12:52:57;;;;;;;10.53;9.23;;;;;;;;;;5015410;28;20629;-79
2021/12/14 12:55:35;;;;;;;6.10;5.50;;;;;;;;;;5009666;28;20227;-79
2021/12/14 12:58:12;;;;;;;3.80;3.50;;;;;;;;;;5010898;28;20749;-80
2021/12/14 13:00:52;;;;;;;6.10;3.13;;;;;;;;;;5009122;28;20214;-80
2021/12/14 13:03:40;;;;;;;2.00;1.90;;;;;;;;;;5009680;28;20203;-80
2021/12/14 13:06:07;;;;;;;9.40;4.77;;;;;;;;;;5013512;28;20280;-81
2021/12/14 13:08:34;;;;;;;7.73;4.00;;;;;;;;;;5014663;28;20246;-80
2021/12/14 13:11:17;;;;;;;2.60;2.20;;;;;;;;;;5012349;28;20207;-80
2021/12/14 13:13:45;;;;;;;1.40;1.30;;;;;;;;;;5005608;28;20279;-80
2021/12/14 13:16:26;;;;;;;1.43;1.33;;;;;;;;;;5004476;28;20204;-80
2021/12/14 13:18:54;;;;;;;1.87;1.50;;;;;;;;;;5004746;28;20285;-77
2021/12/14 13:21:21;;;;;;;1.60;1.50;;;;;;;;;;5010343;28;20290;-82
2021/12/14 13:23:51;;;;;;;2.93;2.27;;;;;;;;;;5016502;28;20642;-79
2021/12/14 13:26:19;;;;;;;1.70;1.60;;;;;;;;;;5015844;28;20203;-81
2021/12/14 13:28:47;;;;;;;4.60;3.90;;;;;;;;;;4990663;28;20253;-79
2021/12/14 13:31:47;;;;;;;10.70;7.33;;;;;;;;;;5009736;28;20211;-79
2021/12/14 13:34:37;;;;;;;7.63;5.23;;;;;;;;;;4985512;28;20307;-81
2021/12/14 13:37:05;;;;;;;11.00;7.00;;;;;;;;;;5011150;28;20230;-82
2021/12/14 13:39:32;;;;;;;2.60;2.40;;;;;;;;;;5010032;28;20310;-79
2021/12/14 13:42:00;;;;;;;12.17;7.43;;;;;;;;;;5007290;28;20258;-80
2021/12/14 13:44:28;;;;;;;6.83;4.40;;;;;;;;;;5011270;28;20207;-80
2021/12/14 13:46:56;;;;;;;6.80;4.67;;;;;;;;;;4989312;28;20235;-81
2021/12/14 13:49:23;;;;;;;3.70;3.30;;;;;;;;;;5005447;28;20222;-80
2021/12/14 13:51:52;;;;;;;5.27;4.70;;;;;;;;;;5007667;28;20210;-79
2021/12/14 13:54:20;;;;;;;6.43;4.90;;;;;;;;;;5010612;28;20285;-80
2021/12/14 13:56:48;;;;;;;3.90;3.53;;;;;;;;;;4997955;28;20303;-80
2021/12/14 13:59:16;;;;;;;3.67;3.37;;;;;;;;;;5004417;28;20306;-79
2021/12/14 14:01:46;;;;;;;5.40;3.90;;;;;;;;;;4992580;28;20222;-80
2021/12/14 14:04:15;;;;;;;4.20;3.80;;;;;;;;;;5005632;28;20299;-80
2021/12/14 14:06:42;;;;;;;4.40;4.00;;;;;;;;;;4992434;28;20291;-80
2021/12/14 14:09:30;;;;;;;4.60;4.20;;;;;;;;;;5011023;28;20231;-80
2021/12/14 14:12:03;;;;;;;4.27;3.87;;;;;;;;;;5011584;28;20250;-80
2021/12/14 14:14:33;;;;;;;4.73;4.27;;;;;;;;;;5013132;28;20690;-79
2021/12/14 14:17:03;;;;;;;4.73;3.90;;;;;;;;;;5010165;28;20299;-79
2021/12/14 14:19:39;;;;;;;3.73;3.43;;;;;;;;;;5010159;28;20301;-80
2021/12/14 14:22:08;;;;;;;2.73;2.53;;;;;;;;;;5011694;28;20253;-81
2021/12/14 14:24:36;;;;;;;2.20;2.10;;;;;;;;;;4993747;28;20226;-79
2021/12/14 14:27:05;;;;;;;2.60;2.40;;;;;;;;;;5011027;28;20573;-80
2021/12/14 14:29:49;;;;;;;2.43;2.23;;;;;;;;;;5012663;28;20315;-79
2021/12/14 14:32:49;;;;;;;4.07;3.67;;;;;;;;;;5013036;28;20212;-79
2021/12/14 14:35:09;;;;;;;2.50;2.30;;;;;;;;;;5014624;28;20207;-82
2021/12/14 14:37:38;;;;;;;2.50;2.20;;;;;;;;;;5010247;28;20227;-80
2021/12/14 14:40:08;;;;;;;2.90;2.70;;;;;;;;;;5018078;28;20230;-81
2021/12/14 14:42:37;;;;;;;3.50;3.23;;;;;;;;;;5009460;28;20235;-79
2021/12/14 14:45:12;;;;;;;3.33;3.03;;;;;;;;;;4999454;28;20203;-82
2021/12/14 14:47:41;;;;;;;4.10;3.70;;;;;;;;;;5002460;28;20251;-82
2021/12/14 14:50:17;;;;;;;2.60;2.40;;;;;;;;;;5010870;28;20214;-82
2021/12/14 14:52:56;;;;;;;3.30;3.00;;;;;;;;;;5010615;28;20227;-79
2021/12/14 14:55:32;;;;;;;4.23;3.93;;;;;;;;;;5010314;28;20208;-80
2021/12/14 14:58:00;;;;;;;7.60;6.83;;;;;;;;;;5014176;28;20706;-79
2021/12/14 15:00:32;;;;;;;7.30;6.60;;;;;;;;;;5014468;28;20207;-80
2021/12/14 15:03:05;;;;;;;9.83;8.93;;;;;;;;;;5012314;28;20207;-80
2021/12/14 15:05:38;;;;;;;8.90;8.13;;;;;;;;;;4995320;28;20235;-78
2021/12/14 15:08:08;;;;;;;8.90;8.10;;;;;;;;;;5015677;28;20261;-79
2021/12/14 15:10:42;;;;;;;12.33;9.50;;;;;;;;;;5004140;28;20223;-79
2021/12/14 15:13:13;;;;;;;11.10;10.00;;;;;;;;;;5014576;28;20258;-79
2021/12/14 15:15:41;;;;;;;12.60;11.27;;;;;;;;;;5015776;28;20238;-80
2021/12/14 15:18:09;;;;;;;12.03;10.77;;;;;;;;;;5019810;28;20290;-80
2021/12/14 15:20:37;;;;;;;30.43;19.73;;;;;;;;;;5009537;28;20231;-81
2021/12/14 15:23:06;;;;;;;15.60;12.60;;;;;;;;;;5014793;28;20238;-80
2021/12/14 15:25:35;;;;;;;13.63;9.10;;;;;;;;;;5012735;28;20578;-80
2021/12/14 15:28:03;;;;;;;16.80;11.83;;;;;;;;;;5010826;28;20302;-79
2021/12/14 15:30:40;;;;;;;19.43;12.57;;;;;;;;;;5000301;28;20203;-81
2021/12/14 15:33:15;;;;;;;22.17;13.67;;;;;;;;;;4994089;28;20242;-79
2021/12/14 15:35:53;;;;;;;14.53;9.30;;;;;;;;;;4996666;28;20203;-81
2021/12/14 15:38:29;;;;;;;16.20;9.00;;;;;;;;;;5017111;28;20230;-78
2021/12/14 15:41:20;;;;;;;8.63;6.67;;;;;;;;;;5010378;28;20309;-80
2021/12/14 15:44:08;;;;;;;9.97;7.43;;;;;;;;;;5006721;28;20640;-79